Time;durP1;ratioP1;P1;durP2;ratioP2;P2;SDS_P1;SDS_P2;PMS_P1;PMS_P2;Temp;Humidity;BMP_temperature;BMP_pressure;BME280_temperature;BME280_humidity;BME280_pressure;Samples;Min_cycle;Max_cycle;Signal;HPM_P1;HPM_P2
2022/01/22 00:01:17;;;;;;;;;9.00;6.00;;;;;8.31;53.51;103242.84;5078942;28;45307;-74
2022/01/22 00:03:43;;;;;;;;;6.33;6.33;;;;;8.43;53.55;103263.53;5079054;28;45370;-73
2022/01/22 00:06:09;;;;;;;;;5.00;5.00;;;;;8.43;53.52;103260.91;5060531;28;46649;-71
2022/01/22 00:08:34;;;;;;;;;11.33;8.67;;;;;8.17;53.54;103220.44;5059181;28;45899;-73
2022/01/22 00:11:00;;;;;;;;;11.67;10.33;;;;;8.05;53.71;103199.81;5057044;28;45482;-74
2022/01/22 00:16:09;;;;;;;;;11.00;10.33;;;;;8.27;53.45;103220.06;5078619;28;45819;-73
2022/01/22 00:18:35;;;;;;;;;7.33;6.33;;;;;8.45;53.94;103246.63;5077595;28;45411;-75
2022/01/22 00:21:01;;;;;;;;;10.67;7.00;;;;;8.46;53.53;103252.81;5040350;28;45316;-71
2022/01/22 00:23:26;;;;;;;;;13.00;8.00;;;;;8.44;53.21;103254.66;5058110;28;45360;-71
2022/01/22 00:25:54;;;;;;;;;9.33;9.33;;;;;8.30;52.98;103225.22;5056518;28;47307;-74
2022/01/22 00:28:20;;;;;;;;;7.33;6.33;;;;;8.47;53.59;103254.53;5056814;28;46282;-71
2022/01/22 00:30:45;;;;;;;;;7.67;7.67;;;;;8.40;53.73;103238.00;5058090;28;45196;-73
2022/01/22 00:33:11;;;;;;;;;8.33;6.33;;;;;8.47;53.49;103254.53;5079703;28;45336;-72
2022/01/22 00:35:36;;;;;;;;;5.00;5.00;;;;;8.42;53.56;103245.91;5080134;28;46015;-74
2022/01/22 00:38:02;;;;;;;;;7.33;6.33;;;;;8.44;53.83;103252.00;5081055;28;45431;-72
2022/01/22 00:40:28;;;;;;;;;7.33;7.33;;;;;8.37;53.99;103227.53;5044285;28;45352;-73
2022/01/22 00:42:53;;;;;;;;;5.67;5.00;;;;;7.79;53.77;103115.31;5050138;28;45573;-71
2022/01/22 00:45:19;;;;;;;;;11.00;8.67;;;;;8.04;53.72;103162.78;5077772;28;45599;-73
2022/01/22 00:47:45;;;;;;;;;9.33;7.00;;;;;8.56;53.81;103240.84;5078411;28;45341;-73
2022/01/22 00:50:13;;;;;;;;;12.00;8.67;;;;;8.58;53.73;103241.63;5046101;28;45299;-72
2022/01/22 00:52:40;;;;;;;;;11.00;11.00;;;;;8.45;54.02;103221.91;5057976;28;45305;-73
2022/01/22 00:55:06;;;;;;;;;7.67;6.33;;;;;8.48;54.02;103222.63;5057511;28;45883;-74
2022/01/22 00:57:31;;;;;;;;;9.33;9.00;;;;;8.44;53.78;103204.28;5057937;28;45449;-70
2022/01/22 00:59:57;;;;;;;;;9.67;9.67;;;;;8.58;54.05;103233.66;5069026;28;45488;-71
2022/01/22 01:02:23;;;;;;;;;11.00;10.00;;;;;8.55;53.42;103228.50;5059432;28;45557;-73
2022/01/22 01:04:49;;;;;;;;;13.67;10.67;;;;;8.19;54.00;103180.63;5078558;28;46674;-73
2022/01/22 01:07:14;;;;;;;;;8.67;8.67;;;;;8.60;53.90;103247.72;5078301;28;45352;-73
2022/01/22 01:09:40;;;;;;;;;8.67;8.67;;;;;8.58;53.70;103236.31;5069174;28;45435;-73
2022/01/22 01:12:10;;;;;;;;;8.67;8.67;;;;;8.63;53.59;103247.59;5043124;28;45496;-74
2022/01/22 01:14:52;;;;;;;;;13.33;11.00;;;;;8.59;54.08;103238.03;5075992;28;47630;-72
2022/01/22 01:33:58;;;;;;;;;9.33;9.00;;;;;8.57;54.23;103221.34;5077808;28;45315;-73
2022/01/22 01:36:24;;;;;;;;;6.67;6.67;;;;;8.63;54.39;103230.81;5059250;28;47267;-71
2022/01/22 01:38:54;;;;;;;;;8.33;7.00;;;;;8.65;54.65;103234.25;5058553;28;45328;-71
2022/01/22 01:41:30;;;;;;;;;9.33;9.33;;;;;8.59;54.42;103210.66;5038789;28;45432;-72
2022/01/22 01:43:55;;;;;;;;;14.00;9.33;;;;;8.60;54.38;103218.53;5057251;28;45530;-71
2022/01/22 01:46:21;;;;;;;;;9.33;7.00;;;;;8.38;54.59;103178.91;5038821;28;47749;-72
2022/01/22 01:48:47;;;;;;;;;6.00;6.00;;;;;8.62;53.94;103231.75;5056058;28;45433;-71
2022/01/22 01:51:13;;;;;;;;;13.00;12.00;;;;;8.54;54.18;103226.78;5077472;28;45265;-72
2022/01/22 01:59:08;;;;;;;;;10.33;8.67;;;;;8.59;54.48;103231.88;5076117;28;45531;-72
2022/01/22 02:01:34;;;;;;;;;11.33;7.67;;;;;7.96;54.20;103118.09;5058720;28;45567;-72
2022/01/22 02:03:59;;;;;;;;;4.33;4.33;;;;;8.54;53.87;103208.22;5058642;28;45566;-75
2022/01/22 02:06:25;;;;;;;;;6.33;6.00;;;;;8.49;54.09;103203.16;5077865;28;46324;-73
2022/01/22 02:08:52;;;;;;;;;10.33;8.33;;;;;8.60;54.46;103218.53;5059839;28;46000;-73
2022/01/22 02:11:20;;;;;;;;;11.00;7.33;;;;;8.50;54.05;103211.97;5056606;28;45495;-72
2022/01/22 02:14:01;;;;;;;;;8.67;7.67;;;;;8.60;54.31;103234.44;5079398;28;45336;-74
2022/01/22 02:24:51;;;;;;;;;10.33;8.00;;;;;8.60;54.31;103207.94;5080714;28;45410;-73
2022/01/22 02:27:17;;;;;;;;;13.33;10.67;;;;;8.56;54.16;103209.00;5080076;28;45770;-72
2022/01/22 02:29:43;;;;;;;;;12.00;10.67;;;;;8.49;54.32;103191.69;5055523;28;45494;-72
2022/01/22 02:35:08;;;;;;;;;11.33;8.33;;;;;8.65;54.52;103218.34;5061114;28;45520;-70
2022/01/22 02:37:38;;;;;;;;;16.00;12.00;;;;;8.67;53.98;103224.44;5060312;28;48812;-73
2022/01/22 02:40:43;;;;;;;;;10.67;10.67;;;;;8.69;53.83;103218.13;5067834;28;45616;-70
2022/01/22 02:42:57;;;;;;;;;9.33;7.00;;;;;8.49;53.91;103176.63;5077690;27;45183;-70
2022/01/22 02:45:23;;;;;;;;;8.67;7.00;;;;;8.62;53.87;103211.41;5080049;28;45558;-73
2022/01/22 02:47:50;;;;;;;;;9.33;9.33;;;;;8.16;54.49;103126.00;5079958;28;46501;-70
2022/01/22 02:50:17;;;;;;;;;7.33;7.33;;;;;8.03;54.21;103097.50;5079976;28;45324;-70
2022/01/22 02:52:42;;;;;;;;;8.67;8.33;;;;;8.68;54.38;103211.09;5061423;28;45324;-72
2022/01/22 02:55:08;;;;;;;;;12.33;9.67;;;;;8.70;53.80;103206.59;5061563;27;45340;-73
2022/01/22 02:57:35;;;;;;;;;11.00;11.00;;;;;8.67;54.08;103205.88;5059386;28;46560;-71
2022/01/22 03:00:04;;;;;;;;;8.00;8.00;;;;;8.52;54.10;103179.13;5059439;28;45553;-72
2022/01/22 03:02:30;;;;;;;;;7.33;7.33;;;;;8.61;54.29;103198.19;5040988;28;45382;-71
2022/01/22 03:04:55;;;;;;;;;9.33;9.33;;;;;8.59;54.68;103200.91;5075290;28;45507;-71
2022/01/22 03:07:20;;;;;;;;;9.33;8.00;;;;;8.64;54.54;103206.03;5061324;28;45994;-72
2022/01/22 03:09:48;;;;;;;;;11.00;11.00;;;;;8.13;54.66;103106.72;5060656;28;45680;-73
2022/01/22 03:12:51;;;;;;;;;19.33;13.00;;;;;8.67;54.80;103198.78;5079452;28;45245;-72
2022/01/22 03:23:07;;;;;;;;;8.00;8.00;;;;;8.57;54.63;103193.97;5079445;28;45418;-72
2022/01/22 03:27:51;;;;;;;;;8.67;8.67;;;;;8.50;55.33;103204.00;5059128;28;45328;-70
2022/01/22 03:30:17;;;;;;;;;7.67;7.67;;;;;8.40;55.01;103187.63;5059013;28;45266;-71
2022/01/22 03:32:47;;;;;;;;;12.00;10.67;;;;;8.42;54.97;103171.69;5040825;28;45344;-74
2022/01/22 03:35:26;;;;;;;;;10.33;10.00;;;;;8.61;54.89;103201.72;5074982;28;45283;-73
2022/01/22 03:37:53;;;;;;;;;14.67;11.67;;;;;8.47;55.00;103186.44;5078950;28;45763;-70
2022/01/22 03:40:29;;;;;;;;;8.00;8.00;;;;;8.39;54.81;103177.09;5079485;28;45640;-74
2022/01/22 03:42:55;;;;;;;;;11.67;10.33;;;;;8.38;55.35;103186.00;5067356;28;45243;-72
2022/01/22 03:45:22;;;;;;;;;9.33;9.33;;;;;8.31;55.09;103184.53;5059198;28;45475;-73
2022/01/22 03:47:48;;;;;;;;;13.67;13.67;;;;;8.41;55.39;103204.41;5040743;28;48636;-72
2022/01/22 03:50:15;;;;;;;;;12.33;11.33;;;;;8.33;55.49;103195.91;5040542;28;45348;-72
2022/01/22 03:52:41;;;;;;;;;12.33;12.33;;;;;8.24;55.85;103200.72;5067945;28;45394;-73
2022/01/22 03:55:10;;;;;;;;;12.67;9.67;;;;;8.36;56.08;103206.41;5079247;28;45389;-74
2022/01/22 03:57:36;;;;;;;;;15.00;11.67;;;;;8.29;55.79;103202.28;5078653;28;45621;-72
2022/01/22 04:00:06;;;;;;;;;13.67;8.67;;;;;8.35;55.90;103191.44;5078659;28;45261;-71
2022/01/22 04:05:01;;;;;;;;;11.67;11.67;;;;;8.45;55.43;103203.38;5058882;28;45336;-72
2022/01/22 04:08:03;;;;;;;;;13.00;9.33;;;;;8.21;55.81;103173.50;5058352;28;45961;-71
2022/01/22 04:10:21;;;;;;;;;10.33;10.00;;;;;8.49;55.93;103213.75;5068939;28;45239;-73
2022/01/22 04:13:01;;;;;;;;;17.33;13.33;;;;;8.45;55.55;103203.38;5059403;28;45295;-70
2022/01/22 04:15:30;;;;;;;;;15.67;12.67;;;;;7.36;55.81;103014.00;5078511;28;45344;-74
2022/01/22 04:26:21;;;;;;;;;15.00;13.33;;;;;8.38;55.72;103186.00;5058357;28;45400;-71
2022/01/22 04:28:46;;;;;;;;;12.67;11.00;;;;;8.34;56.21;103189.72;5057792;28;46304;-73
2022/01/22 04:31:12;;;;;;;;;20.67;14.00;;;;;7.78;56.11;103095.94;5056784;28;45537;-72
2022/01/22 04:33:38;;;;;;;;;15.67;13.00;;;;;8.29;57.01;103191.69;5059655;28;45491;-72
2022/01/22 04:36:04;;;;;;;;;16.33;13.33;;;;;8.33;56.11;103199.44;5059208;28;45486;-72
2022/01/22 04:38:29;;;;;;;;;17.00;16.33;;;;;8.13;56.37;103181.78;5057799;28;47869;-74
2022/01/22 04:40:55;;;;;;;;;15.33;15.00;;;;;8.11;56.32;103166.88;5078028;28;45492;-71
2022/01/22 04:43:21;;;;;;;;;18.67;15.33;;;;;8.14;56.87;103188.78;5078146;28;45553;-72
2022/01/22 04:46:06;;;;;;;;;21.67;18.67;;;;;8.15;56.51;103193.16;5078828;28;45475;-72
2022/01/22 04:56:52;;;;;;;;;24.33;23.33;;;;;7.91;57.70;103178.38;5057481;28;45363;-71
2022/01/22 04:59:18;;;;;;;;;22.67;19.67;;;;;8.03;57.16;103201.69;5055994;28;46284;-72
2022/01/22 05:01:43;;;;;;;;;27.67;22.33;;;;;7.88;57.01;103191.75;5055717;28;45383;-72
2022/01/22 05:04:09;;;;;;;;;29.67;22.67;;;;;7.77;57.59;103192.19;5059085;28;45841;-71
2022/01/22 05:06:34;;;;;;;;;27.33;25.33;;;;;7.65;56.96;103165.41;5078629;28;45284;-71
2022/01/22 05:09:00;;;;;;;;;32.67;29.00;;;;;7.91;56.89;103202.19;5059178;28;48414;-71
2022/01/22 05:11:25;;;;;;;;;27.00;23.33;;;;;7.86;56.64;103193.59;5077453;28;45282;-73
2022/01/22 05:13:52;;;;;;;;;23.33;21.67;;;;;7.92;56.95;103203.91;5060930;28;45467;-73
2022/01/22 05:16:18;;;;;;;;;23.00;22.00;;;;;7.75;57.13;103196.69;5057448;28;45242;-70
2022/01/22 05:19:10;;;;;;;;;25.33;24.67;;;;;7.77;57.20;103201.91;5056986;28;46388;-70
2022/01/22 05:21:34;;;;;;;;;26.33;23.67;;;;;7.75;56.99;103202.00;5056434;28;45528;-71
2022/01/22 05:24:05;;;;;;;;;24.00;22.00;;;;;7.57;57.52;103169.22;5056997;28;45439;-72
2022/01/22 05:29:31;;;;;;;;;24.00;22.50;;;;;7.31;58.23;103164.16;5077032;28;46368;-71
2022/01/22 05:37:21;;;;;;;;;27.00;23.67;;;;;7.30;58.58;103220.66;5057038;28;45290;-70
2022/01/22 05:39:46;;;;;;;;;31.33;24.00;;;;;7.33;59.05;103215.25;5059760;28;47671;-71
2022/01/22 05:42:11;;;;;;;;;30.33;27.33;;;;;7.41;58.61;103207.88;5041771;28;45262;-72
2022/01/22 05:44:37;;;;;;;;;28.67;25.00;;;;;7.44;58.87;103212.16;5077476;27;45466;-73
2022/01/22 05:47:05;;;;;;;;;25.67;22.33;;;;;7.35;59.47;103186.94;5077601;28;45571;-73
2022/01/22 05:49:37;;;;;;;;;27.00;27.00;;;;;7.22;59.01;103178.66;5062223;28;46248;-73
2022/01/22 05:52:05;;;;;;;;;20.33;19.33;;;;;7.47;58.93;103201.44;5079892;28;45489;-72
2022/01/22 05:59:40;;;;;;;;;29.00;24.33;;;;;7.20;59.24;103199.00;5060523;28;45888;-71
2022/01/22 06:02:16;;;;;;;;;26.67;21.00;;;;;7.19;59.69;103207.00;5042053;28;45496;-72
2022/01/22 06:04:43;;;;;;;;;21.00;20.00;;;;;6.32;59.39;103068.56;5059201;28;45229;-71
2022/01/22 06:07:10;;;;;;;;;26.33;23.67;;;;;7.27;59.38;103215.50;5042058;28;45502;-72
2022/01/22 06:09:39;;;;;;;;;31.67;29.00;;;;;7.44;59.25;103234.19;5059776;28;45882;-73
2022/01/22 06:14:30;;;;;;;;;39.33;32.00;;;;;7.52;58.57;103225.94;5060380;28;45403;-72
2022/01/22 06:16:56;;;;;;;;;28.00;22.00;;;;;7.41;58.94;103214.91;5060183;28;45904;-72
2022/01/22 06:19:21;;;;;;;;;30.00;25.67;;;;;7.55;58.92;103218.72;5041701;28;48013;-72
2022/01/22 06:21:50;;;;;;;;;27.00;26.00;;;;;7.33;58.76;103188.78;5041451;28;45573;-73
2022/01/22 06:24:15;;;;;;;;;31.00;28.00;;;;;7.48;59.11;103211.97;5060888;28;45585;-74
2022/01/22 06:26:41;;;;;;;;;34.67;26.33;;;;;7.48;58.73;103211.09;5042272;28;45250;-72
2022/01/22 06:29:06;;;;;;;;;33.67;29.67;;;;;7.41;59.10;103214.91;5059873;28;45633;-71
2022/01/22 06:31:32;;;;;;;;;30.33;29.33;;;;;7.32;59.13;103213.53;5059604;28;45495;-72
2022/01/22 06:33:58;;;;;;;;;24.00;24.00;;;;;7.44;59.13;103218.31;5041628;28;45288;-74
2022/01/22 06:36:25;;;;;;;;;33.00;25.00;;;;;7.48;59.09;103214.63;5060066;28;45330;-72
2022/01/22 06:38:56;;;;;;;;;28.67;25.67;;;;;7.28;58.71;103174.88;5062008;28;46498;-72
2022/01/22 06:44:06;;;;;;;;;30.00;28.67;;;;;7.36;59.34;103198.38;5061029;28;45261;-72
2022/01/22 06:46:31;;;;;;;;;30.33;25.00;;;;;7.24;58.86;103173.28;5060174;28;45230;-72
2022/01/22 06:48:57;;;;;;;;;26.33;23.33;;;;;7.20;59.17;103176.97;5059622;28;46824;-74
2022/01/22 06:51:23;;;;;;;;;28.33;25.00;;;;;7.43;58.92;103200.72;5078299;28;45332;-73
2022/01/22 06:53:49;;;;;;;;;27.67;23.00;;;;;6.84;58.78;103100.00;5078521;28;45440;-73
2022/01/22 06:56:20;;;;;;;;;27.67;22.00;;;;;7.54;59.05;103221.44;5078308;28;45384;-71
2022/01/22 06:58:46;;;;;;;;;31.00;29.00;;;;;7.26;59.17;103163.50;5079130;28;45360;-73
2022/01/22 07:01:11;;;;;;;;;30.00;26.67;;;;;7.54;58.31;103202.91;5079393;28;45316;-71
2022/01/22 07:03:37;;;;;;;;;35.00;31.00;;;;;7.68;58.93;103234.09;5080400;28;45327;-72
2022/01/22 07:06:02;;;;;;;;;33.33;28.33;;;;;7.32;58.50;103173.81;5053218;28;45767;-73
2022/01/22 07:08:28;;;;;;;;;30.00;27.67;;;;;7.32;58.49;103187.91;5059225;28;46148;-73
2022/01/22 07:10:53;;;;;;;;;31.00;25.33;;;;;7.16;58.93;103164.78;5057756;28;46107;-72
2022/01/22 07:13:19;;;;;;;;;35.67;30.33;;;;;7.53;58.91;103214.41;5059250;28;45585;-75
2022/01/22 07:15:44;;;;;;;;;22.33;20.00;;;;;7.67;58.61;103229.72;5046796;28;46731;-72
2022/01/22 07:18:12;;;;;;;;;25.00;23.33;;;;;7.72;58.55;103235.69;5061613;28;46469;-73
2022/01/22 07:20:40;;;;;;;;;29.00;25.33;;;;;7.56;58.55;103223.09;5040926;28;45685;-73
2022/01/22 07:23:31;;;;;;;;;23.67;21.33;;;;;7.47;58.59;103215.53;5057575;28;45309;-73
2022/01/22 07:25:56;;;;;;;;;28.00;20.67;;;;;7.60;59.35;103235.25;5057942;28;45573;-74
2022/01/22 07:28:22;;;;;;;;;32.33;28.67;;;;;7.58;59.01;103239.75;5074444;28;47187;-72
2022/01/22 07:30:48;;;;;;;;;29.50;26.50;;;;;7.25;59.27;103206.75;5077533;28;45493;-73
2022/01/22 07:33:14;;;;;;;;;25.67;21.00;;;;;7.18;59.38;103226.44;5077801;28;45555;-72
2022/01/22 07:35:40;;;;;;;;;32.33;31.33;;;;;6.24;60.04;103085.63;5078138;28;45515;-73
2022/01/22 07:38:09;;;;;;;;;27.67;25.33;;;;;7.19;60.50;103238.75;5066474;28;45288;-72
2022/01/22 07:40:36;;;;;;;;;33.33;28.33;;;;;7.42;60.06;103251.94;5058294;28;45429;-72
2022/01/22 07:43:01;;;;;;;;;28.00;25.67;;;;;7.56;59.34;103251.34;5058938;28;45439;-75
2022/01/22 07:45:27;;;;;;;;;29.00;26.00;;;;;7.42;59.24;103211.38;5040690;28;45301;-74
2022/01/22 07:47:53;;;;;;;;;30.33;27.00;;;;;7.60;59.50;103237.91;5053519;28;48621;-74
2022/01/22 07:50:18;;;;;;;;;26.67;25.00;;;;;7.06;59.32;103152.88;5079205;28;45253;-72
2022/01/22 07:52:44;;;;;;;;;30.00;25.00;;;;;7.62;59.18;103249.31;5077251;28;45482;-72
2022/01/22 07:55:09;;;;;;;;;29.67;28.33;;;;;7.69;58.52;103264.94;5080037;28;45474;-72
2022/01/22 07:57:35;;;;;;;;;27.00;25.33;;;;;7.59;58.79;103257.38;5059334;28;45767;-70
2022/01/22 08:00:00;;;;;;;;;33.00;28.67;;;;;7.64;58.78;103257.22;5040981;28;45577;-72
2022/01/22 08:02:26;;;;;;;;;29.67;25.67;;;;;7.61;59.07;103242.31;5059700;28;45266;-73
2022/01/22 08:04:51;;;;;;;;;25.67;24.00;;;;;7.58;58.63;103237.13;5058839;28;45327;-73
2022/01/22 08:07:17;;;;;;;;;30.00;24.67;;;;;7.59;58.72;103244.13;5058422;28;46595;-73
2022/01/22 08:09:45;;;;;;;;;31.00;29.67;;;;;7.42;59.73;103253.72;5059087;28;45529;-73
2022/01/22 08:12:11;;;;;;;;;36.33;30.00;;;;;7.48;60.07;103275.50;5040976;28;45459;-73
2022/01/22 08:14:37;;;;;;;;;41.00;32.67;;;;;7.32;60.21;103277.03;5059876;28;45288;-74
2022/01/22 08:17:02;;;;;;;;;31.33;29.67;;;;;6.81;60.76;103192.63;5064314;28;48536;-73
2022/01/22 08:19:28;;;;;;;;;27.67;25.33;;;;;7.30;60.22;103260.34;5039840;28;46104;-71
2022/01/22 08:21:53;;;;;;;;;35.00;32.33;;;;;7.24;59.97;103252.66;5066851;28;45502;-73
2022/01/22 08:24:23;;;;;;;;;38.67;33.67;;;;;7.38;60.20;103263.53;5079240;28;45578;-73
2022/01/22 08:27:03;;;;;;;;;31.67;28.67;;;;;7.32;60.49;103261.16;5061433;28;48407;-71
2022/01/22 08:29:28;;;;;;;;;32.67;30.33;;;;;7.28;60.27;103281.59;5080027;28;45381;-73
2022/01/22 08:32:09;;;;;;;;;38.33;30.00;;;;;7.26;60.57;103272.00;5078531;28;45229;-73
2022/01/22 08:37:19;;;;;;;;;33.33;28.33;;;;;6.35;61.18;103144.19;5073493;28;45904;-73
2022/01/22 08:39:44;;;;;;;;;41.67;31.00;;;;;7.27;60.78;103289.59;5060356;28;45335;-74
2022/01/22 08:42:10;;;;;;;;;40.33;31.00;;;;;7.21;60.38;103273.97;5079193;28;45455;-73
2022/01/22 08:44:35;;;;;;;;;33.00;29.67;;;;;6.73;60.42;103206.16;5079819;28;45361;-74
2022/01/22 08:47:01;;;;;;;;;34.33;30.33;;;;;7.08;61.07;103288.56;5069035;28;47802;-74
2022/01/22 08:49:26;;;;;;;;;36.67;30.33;;;;;7.26;61.38;103309.03;5058554;28;45236;-74
2022/01/22 08:51:53;;;;;;;;;30.33;27.67;;;;;7.14;60.56;103277.75;5040462;28;45371;-74
2022/01/22 08:54:19;;;;;;;;;34.33;32.33;;;;;7.40;60.68;103303.16;5056413;28;46441;-74
2022/01/22 08:56:44;;;;;;;;;35.67;32.33;;;;;7.29;59.84;103290.38;5039300;28;47484;-73
2022/01/22 08:59:11;;;;;;;;;34.33;31.00;;;;;7.39;60.13;103290.88;5072366;28;45514;-75
2022/01/22 09:01:42;;;;;;;;;31.00;28.33;;;;;7.44;59.69;103312.75;5076897;28;45598;-73
2022/01/22 09:04:08;;;;;;;;;36.33;33.00;;;;;7.53;60.15;103315.88;5078236;28;45348;-76
2022/01/22 09:06:34;;;;;;;;;33.33;29.33;;;;;7.58;59.61;103318.31;5076707;28;47728;-70
2022/01/22 09:09:09;;;;;;;;;34.00;30.67;;;;;7.57;59.84;103308.66;5077543;28;45455;-73
2022/01/22 09:11:36;;;;;;;;;34.33;30.00;;;;;7.63;59.62;103316.38;5059698;28;45480;-73
2022/01/22 09:14:07;;;;;;;;;31.67;29.33;;;;;7.37;59.53;103290.94;5078234;28;45533;-73
2022/01/22 09:16:36;;;;;;;;;35.67;31.00;;;;;7.62;59.48;103323.47;5058719;28;47783;-73
2022/01/22 09:19:09;;;;;;;;;36.67;32.67;;;;;7.24;59.48;103263.25;5059212;28;45364;-74
2022/01/22 09:21:36;;;;;;;;;38.67;32.33;;;;;7.48;60.36;103317.84;5078277;28;45253;-71
2022/01/22 09:24:03;;;;;;;;;37.67;33.33;;;;;7.66;59.82;103315.38;5076818;28;45406;-75
2022/01/22 09:26:29;;;;;;;;;36.33;32.67;;;;;7.49;59.45;103277.22;5077045;28;46593;-70
2022/01/22 09:28:57;;;;;;;;;37.00;33.00;;;;;7.61;59.51;103305.84;5059352;28;45491;-74
2022/01/22 09:31:27;;;;;;;;;31.67;29.67;;;;;7.61;59.89;103316.44;5075682;28;45339;-73
2022/01/22 09:33:56;;;;;;;;;28.00;27.33;;;;;7.61;59.91;103337.63;5077817;28;45403;-72
2022/01/22 09:36:22;;;;;;;;;36.00;31.00;;;;;7.65;59.18;103325.13;5052582;28;47360;-73
2022/01/22 09:38:51;;;;;;;;;31.67;26.33;;;;;7.77;59.20;103335.19;5038729;28;46121;-75
2022/01/22 09:41:18;;;;;;;;;26.33;25.00;;;;;7.80;58.91;103320.97;5061623;28;45279;-72
2022/01/22 09:43:44;;;;;;;;;35.33;29.67;;;;;7.70;58.43;103295.81;5059387;28;45205;-73
2022/01/22 09:46:11;;;;;;;;;44.00;35.67;;;;;7.92;58.59;103342.50;5073651;28;45791;-74
2022/01/22 09:48:41;;;;;;;;;32.00;32.00;;;;;7.95;59.30;103346.81;5051070;28;45713;-74
2022/01/22 09:51:07;;;;;;;;;33.00;32.33;;;;;7.93;58.56;103331.00;5075389;28;45602;-72
2022/01/22 09:53:32;;;;;;;;;31.00;30.33;;;;;7.85;58.16;103326.94;5075900;28;45551;-73
2022/01/22 09:55:58;;;;;;;;;33.33;33.00;;;;;7.91;58.60;103345.22;5058832;28;47893;-72
2022/01/22 09:58:24;;;;;;;;;36.33;29.67;;;;;7.93;58.45;103340.72;5057358;28;45481;-73
2022/01/22 10:00:49;;;;;;;;;29.33;27.00;;;;;7.92;57.96;103339.00;5045810;28;45494;-76
2022/01/22 10:03:19;;;;;;;;;37.33;31.33;;;;;6.87;58.47;103195.94;5074233;28;45536;-74
2022/01/22 10:05:45;;;;;;;;;30.67;28.00;;;;;7.75;58.25;103307.91;5072883;28;47442;-74
2022/01/22 10:08:25;;;;;;;;;32.67;31.00;;;;;7.87;58.20;103320.66;5076921;28;45395;-76
2022/01/22 10:10:52;;;;;;;;;36.67;31.67;;;;;8.03;57.62;103347.38;5071807;28;45346;-73
2022/01/22 10:13:37;;;;;;;;;34.00;32.67;;;;;7.90;58.06;103339.06;5074013;28;45546;-74
2022/01/22 10:16:12;;;;;;;;;37.00;30.67;;;;;7.75;58.37;103329.09;5075563;28;48211;-73
2022/01/22 10:18:37;;;;;;;;;33.33;31.67;;;;;7.75;58.39;103339.69;5075837;28;45483;-73
2022/01/22 10:21:08;;;;;;;;;32.00;27.33;;;;;7.62;58.39;103339.34;5076574;28;45341;-74
2022/01/22 10:23:39;;;;;;;;;38.67;28.67;;;;;7.58;58.82;103335.06;5060406;28;45454;-77
2022/01/22 10:26:14;;;;;;;;;31.00;28.33;;;;;7.70;59.06;103356.69;5056369;28;47511;-73
2022/01/22 10:28:49;;;;;;;;;32.00;30.67;;;;;7.65;58.46;103356.88;5066423;28;45170;-72
2022/01/22 10:31:22;;;;;;;;;32.67;28.00;;;;;7.40;58.88;103314.63;5051863;28;45297;-77
2022/01/22 10:34:11;;;;;;;;;28.00;24.00;;;;;7.56;59.15;103366.03;5068928;28;45686;-75
2022/01/22 10:37:04;;;;;;;;;26.67;23.67;;;;;6.75;58.78;103233.41;5065766;28;47901;-75
2022/01/22 10:39:30;;;;;;;;;36.33;30.00;;;;;6.52;58.68;103177.91;5072705;27;45615;-72
2022/01/22 10:41:55;;;;;;;;;36.00;31.67;;;;;7.70;58.20;103356.69;5081368;28;45271;-73
2022/01/22 10:44:45;;;;;;;;;37.00;31.00;;;;;7.60;58.20;103346.47;5066945;28;45447;-73
2022/01/22 10:47:19;;;;;;;;;39.00;32.67;;;;;7.80;58.62;103369.50;5065170;28;45790;-72
2022/01/22 10:49:44;;;;;;;;;37.33;33.00;;;;;7.72;58.21;103350.41;5079966;28;45474;-71
2022/01/22 10:52:11;;;;;;;;;32.33;27.00;;;;;7.86;58.29;103349.88;5055645;28;45420;-73
2022/01/22 10:55:14;;;;;;;;;35.00;33.00;;;;;7.75;57.69;103360.00;5077041;28;45464;-75
2022/01/22 10:57:40;;;;;;;;;26.33;26.33;;;;;7.30;58.61;103278.88;4982950;28;47486;-73
2022/01/22 11:00:19;;;;;;;;;31.33;30.33;;;;;7.75;58.24;103363.53;5045882;28;45553;-72
2022/01/22 11:02:47;;;;;;;;;27.67;24.33;;;;;7.83;57.92;103344.69;5061403;28;45625;-73
2022/01/22 11:05:36;;;;;;;;;29.00;27.00;;;;;7.39;58.09;103259.97;5061608;28;45332;-71
2022/01/22 11:08:12;;;;;;;;;28.00;28.00;;;;;7.70;57.18;103299.31;5061638;28;47694;-71
2022/01/22 11:10:40;;;;;;;;;35.33;33.00;;;;;8.05;57.52;103344.66;5076006;28;45446;-72
2022/01/22 11:13:06;;;;;;;;;40.00;33.33;;;;;8.08;57.75;103345.41;5069228;27;45579;-70
2022/01/22 11:15:33;;;;;;;;;42.00;35.33;;;;;7.88;57.33;103287.09;5067569;28;45523;-72
2022/01/22 11:18:11;;;;;;;;;35.67;31.33;;;;;8.36;56.85;103336.28;5081777;27;47683;-72
2022/01/22 11:20:38;;;;;;;;;24.00;20.67;;;;;8.36;56.84;103326.56;5058014;28;45644;-72
2022/01/22 11:23:04;;;;;;;;;34.33;32.67;;;;;8.24;56.64;103295.25;5036779;28;45536;-71
2022/01/22 11:25:33;;;;;;;;;41.33;34.00;;;;;8.46;56.47;103332.34;5029712;28;45305;-69
2022/01/22 11:28:00;;;;;;;;;33.33;30.67;;;;;8.45;56.77;103320.00;5041132;28;47192;-73
2022/01/22 11:30:28;;;;;;;;;37.00;33.00;;;;;8.19;56.49;103274.25;5015420;28;46376;-71
2022/01/22 11:33:08;;;;;;;;;37.00;33.00;;;;;8.41;56.42;103334.31;5032318;28;45385;-70
2022/01/22 11:35:47;;;;;;;;;39.67;30.67;;;;;7.81;56.54;103240.63;5036911;28;45497;-71
2022/01/22 11:38:40;;;;;;;;;43.00;34.67;;;;;8.12;56.64;103285.19;5037670;28;46445;-74
2022/01/22 11:41:18;;;;;;;;;38.00;33.00;;;;;7.31;56.72;103170.31;5037279;28;45437;-73
2022/01/22 11:44:12;;;;;;;;;46.00;34.67;;;;;8.31;57.06;103317.06;5053365;28;45478;-70
2022/01/22 11:46:41;;;;;;;;;35.00;33.00;;;;;7.86;56.24;103205.06;5021642;28;46751;-71
2022/01/22 11:49:14;;;;;;;;;38.00;34.00;;;;;8.78;56.08;103323.78;5020573;28;46958;-72
2022/01/22 11:51:48;;;;;;;;;38.00;32.33;;;;;8.91;55.69;103323.25;5021293;28;45230;-74
2022/01/22 11:54:19;;;;;;;;;31.33;27.33;;;;;8.69;55.33;103276.47;5046872;28;45387;-72
2022/01/22 11:56:54;;;;;;;;;33.33;30.67;;;;;8.82;55.31;103303.31;5036791;28;45558;-71
2022/01/22 11:59:23;;;;;;;;;33.00;28.67;;;;;8.77;54.97;103319.41;5033954;28;45526;-73
2022/01/22 12:01:53;;;;;;;;;34.00;30.67;;;;;8.64;55.82;103320.91;5017803;28;45592;-73
2022/01/22 12:04:22;;;;;;;;;34.33;32.00;;;;;8.01;55.88;103205.28;5025998;28;45265;-72
2022/01/22 12:07:02;;;;;;;;;40.00;32.33;;;;;8.58;55.92;103309.69;5048011;28;45361;-75
2022/01/22 12:15:06;;;;;;;;;41.33;34.67;;;;;8.85;55.53;103297.88;5025891;28;45430;-73
2022/01/22 12:18:18;;;;;;;;;28.67;27.67;;;;;8.81;54.89;103289.19;5037412;28;45304;-72
2022/01/22 12:21:31;;;;;;;;;27.67;25.33;;;;;8.89;55.28;103299.44;5056262;28;47518;-70
2022/01/22 12:23:31;;;;;;;;;33.33;30.00;;;;;8.96;54.47;103300.00;5073452;28;45494;-71
2022/01/22 12:26:02;;;;;;;;;37.67;32.33;;;;;9.04;54.94;103292.56;5078437;28;45872;-73
2022/01/22 12:28:49;;;;;;;;;42.67;36.00;;;;;9.08;54.72;103288.84;5061594;28;45486;-76
2022/01/22 12:31:20;;;;;;;;;32.33;29.33;;;;;9.08;54.72;103288.84;5076784;28;48192;-72
2022/01/22 12:34:03;;;;;;;;;41.00;34.67;;;;;9.27;54.41;103284.38;5040129;28;45399;-72
2022/01/22 12:36:40;;;;;;;;;34.33;32.67;;;;;9.41;54.09;103286.34;5059259;28;45179;-73
2022/01/22 12:39:17;;;;;;;;;42.33;34.33;;;;;9.41;53.80;103279.28;5043422;28;45463;-78
2022/01/22 12:41:54;;;;;;;;;31.33;30.33;;;;;8.98;54.25;103216.75;5054093;28;48393;-73
2022/01/22 12:46:59;;;;;;;;;32.00;29.33;;;;;9.06;54.23;103270.34;5073281;28;45363;-72
2022/01/22 12:49:26;;;;;;;;;34.33;32.67;;;;;8.99;54.20;103246.78;5078574;28;45437;-72
2022/01/22 12:52:00;;;;;;;;;33.67;31.00;;;;;8.80;53.97;103207.88;5062629;27;48748;-74
2022/01/22 12:54:29;;;;;;;;;36.33;31.00;;;;;8.79;53.87;103184.06;5078916;27;45480;-78
2022/01/22 12:57:04;;;;;;;;;28.00;28.00;;;;;9.29;53.92;103255.97;5076013;27;45460;-72
2022/01/22 12:59:32;;;;;;;;;36.33;32.00;;;;;9.37;53.92;103253.78;5059634;27;45521;-72
2022/01/22 13:01:57;;;;;;;;;33.00;32.00;;;;;9.32;53.71;103255.81;5083465;27;47525;-70
2022/01/22 13:04:22;;;;;;;;;35.33;32.00;;;;;9.12;53.76;103229.38;5057483;28;45388;-71